sensor_id;sensor_type;location;lat;lon;timestamp;pressure;altitude;pressure_sealevel;temperature;humidity
42887;BME280;29032;56.028;92.904;2022-10-12T00:04:28;99597.78;;;8.11;54.54
42887;BME280;29032;56.028;92.904;2022-10-12T00:09:30;99604.81;;;8.18;54.38
42887;BME280;29032;56.028;92.904;2022-10-12T00:14:36;99609.25;;;8.32;53.98
42887;BME280;29032;56.028;92.904;2022-10-12T00:19:38;99604.94;;;8.37;54.01
42887;BME280;29032;56.028;92.904;2022-10-12T00:24:40;99604.84;;;8.48;53.84
42887;BME280;29032;56.028;92.904;2022-10-12T00:29:43;99601.78;;;8.57;53.78
42887;BME280;29032;56.028;92.904;2022-10-12T00:34:46;99590.66;;;8.57;54.03
42887;BME280;29032;56.028;92.904;2022-10-12T00:39:48;99604.47;;;8.63;54.05
42887;BME280;29032;56.028;92.904;2022-10-12T00:44:51;99602.16;;;8.72;53.54
42887;BME280;29032;56.028;92.904;2022-10-12T00:49:57;99608.16;;;8.76;53.35
42887;BME280;29032;56.028;92.904;2022-10-12T00:55:02;99624.34;;;8.72;53.57
42887;BME280;29032;56.028;92.904;2022-10-12T01:00:09;99622.28;;;8.78;53.15
42887;BME280;29032;56.028;92.904;2022-10-12T01:05:12;99626.91;;;8.70;53.39
42887;BME280;29032;56.028;92.904;2022-10-12T01:10:14;99623.31;;;8.75;53.39
42887;BME280;29032;56.028;92.904;2022-10-12T01:15:18;99630.34;;;8.82;53.34
42887;BME280;29032;56.028;92.904;2022-10-12T01:20:43;99628.69;;;8.98;52.97
42887;BME280;29032;56.028;92.904;2022-10-12T01:25:59;99627.19;;;8.97;52.88
42887;BME280;29032;56.028;92.904;2022-10-12T01:31:17;99628.97;;;8.94;52.80
42887;BME280;29032;56.028;92.904;2022-10-12T01:36:26;99625.97;;;8.92;53.14
42887;BME280;29032;56.028;92.904;2022-10-12T01:41:35;99631.22;;;8.96;53.21
42887;BME280;29032;56.028;92.904;2022-10-12T01:46:40;99629.06;;;9.13;51.83
42887;BME280;29032;56.028;92.904;2022-10-12T01:51:59;99632.75;;;8.97;53.44
42887;BME280;29032;56.028;92.904;2022-10-12T01:57:07;99642.56;;;8.98;53.13
42887;BME280;29032;56.028;92.904;2022-10-12T02:02:21;99626.88;;;9.06;52.97
42887;BME280;29032;56.028;92.904;2022-10-12T02:07:28;99634.00;;;8.96;52.92
42887;BME280;29032;56.028;92.904;2022-10-12T02:12:33;99630.31;;;8.88;53.57
42887;BME280;29032;56.028;92.904;2022-10-12T02:17:39;99632.28;;;8.93;53.32
42887;BME280;29032;56.028;92.904;2022-10-12T02:22:45;99637.91;;;8.81;53.73
42887;BME280;29032;56.028;92.904;2022-10-12T02:27:52;99640.63;;;8.57;54.60
42887;BME280;29032;56.028;92.904;2022-10-12T02:33:03;99639.41;;;8.47;55.14
42887;BME280;29032;56.028;92.904;2022-10-12T02:38:11;99623.59;;;8.42;55.31
42887;BME280;29032;56.028;92.904;2022-10-12T02:43:14;99644.00;;;8.74;53.53
42887;BME280;29032;56.028;92.904;2022-10-12T02:48:21;99633.56;;;8.56;55.85
42887;BME280;29032;56.028;92.904;2022-10-12T02:53:27;99631.47;;;8.62;55.52
42887;BME280;29032;56.028;92.904;2022-10-12T02:58:30;99626.44;;;8.61;54.68
42887;BME280;29032;56.028;92.904;2022-10-12T03:03:34;99630.66;;;8.73;54.53
42887;BME280;29032;56.028;92.904;2022-10-12T03:08:36;99641.72;;;8.78;55.85
42887;BME280;29032;56.028;92.904;2022-10-12T03:13:38;99635.63;;;8.80;56.14
42887;BME280;29032;56.028;92.904;2022-10-12T03:18:42;99639.69;;;8.79;56.92
42887;BME280;29032;56.028;92.904;2022-10-12T03:23:44;99629.41;;;8.68;56.22
42887;BME280;29032;56.028;92.904;2022-10-12T03:28:46;99635.69;;;8.39;57.39
42887;BME280;29032;56.028;92.904;2022-10-12T03:33:50;99640.47;;;8.44;56.84
42887;BME280;29032;56.028;92.904;2022-10-12T03:38:52;99644.34;;;8.30;57.12
42887;BME280;29032;56.028;92.904;2022-10-12T03:43:54;99646.63;;;8.25;56.94
42887;BME280;29032;56.028;92.904;2022-10-12T03:48:58;99652.88;;;8.32;56.38
42887;BME280;29032;56.028;92.904;2022-10-12T03:54:00;99658.44;;;8.32;55.82
42887;BME280;29032;56.028;92.904;2022-10-12T03:59:02;99658.97;;;8.24;56.37
42887;BME280;29032;56.028;92.904;2022-10-12T04:04:06;99657.69;;;8.31;56.83
42887;BME280;29032;56.028;92.904;2022-10-12T04:09:08;99655.44;;;8.30;55.92
42887;BME280;29032;56.028;92.904;2022-10-12T04:14:10;99647.63;;;8.28;55.34
42887;BME280;29032;56.028;92.904;2022-10-12T04:19:14;99647.63;;;8.28;55.51
42887;BME280;29032;56.028;92.904;2022-10-12T04:24:16;99642.34;;;8.24;55.19
42887;BME280;29032;56.028;92.904;2022-10-12T04:29:18;99633.28;;;8.18;55.35
42887;BME280;29032;56.028;92.904;2022-10-12T04:34:21;99631.53;;;8.21;55.75
42887;BME280;29032;56.028;92.904;2022-10-12T04:39:24;99632.03;;;8.19;55.40
42887;BME280;29032;56.028;92.904;2022-10-12T04:44:26;99631.25;;;8.24;55.15
42887;BME280;29032;56.028;92.904;2022-10-12T04:49:29;99631.97;;;8.31;55.13
42887;BME280;29032;56.028;92.904;2022-10-12T04:54:32;99628.16;;;8.34;55.58
42887;BME280;29032;56.028;92.904;2022-10-12T04:59:34;99628.81;;;8.87;55.62
42887;BME280;29032;56.028;92.904;2022-10-12T05:04:37;99621.81;;;9.04;54.29
42887;BME280;29032;56.028;92.904;2022-10-12T05:09:39;99614.03;;;9.27;54.12
42887;BME280;29032;56.028;92.904;2022-10-12T05:14:41;99602.78;;;9.38;55.37
42887;BME280;29032;56.028;92.904;2022-10-12T05:19:45;99610.06;;;9.85;53.81
42887;BME280;29032;56.028;92.904;2022-10-12T05:24:47;99604.56;;;9.79;52.61
42887;BME280;29032;56.028;92.904;2022-10-12T05:29:49;99593.41;;;9.60;53.35
42887;BME280;29032;56.028;92.904;2022-10-12T05:34:53;99595.81;;;9.51;52.74
42887;BME280;29032;56.028;92.904;2022-10-12T05:39:55;99581.22;;;9.45;53.71
42887;BME280;29032;56.028;92.904;2022-10-12T05:44:57;99579.72;;;9.44;52.66
42887;BME280;29032;56.028;92.904;2022-10-12T05:50:00;99573.13;;;9.47;53.35
42887;BME280;29032;56.028;92.904;2022-10-12T05:55:03;99556.75;;;9.43;53.04
42887;BME280;29032;56.028;92.904;2022-10-12T06:00:07;99556.97;;;9.45;53.09
42887;BME280;29032;56.028;92.904;2022-10-12T06:05:13;99554.19;;;9.45;53.39
42887;BME280;29032;56.028;92.904;2022-10-12T06:10:15;99549.69;;;9.42;54.28
42887;BME280;29032;56.028;92.904;2022-10-12T06:15:17;99547.44;;;9.41;53.89
42887;BME280;29032;56.028;92.904;2022-10-12T06:20:21;99539.03;;;9.46;53.52
42887;BME280;29032;56.028;92.904;2022-10-12T06:25:23;99527.00;;;9.38;54.32
42887;BME280;29032;56.028;92.904;2022-10-12T06:30:25;99526.94;;;9.44;54.05
42887;BME280;29032;56.028;92.904;2022-10-12T06:35:28;99520.69;;;9.37;53.65
42887;BME280;29032;56.028;92.904;2022-10-12T06:40:30;99515.72;;;9.30;52.23
42887;BME280;29032;56.028;92.904;2022-10-12T06:45:32;99520.84;;;9.26;52.59
42887;BME280;29032;56.028;92.904;2022-10-12T06:50:36;99516.53;;;9.06;52.68
42887;BME280;29032;56.028;92.904;2022-10-12T06:55:38;99527.97;;;8.97;53.89
42887;BME280;29032;56.028;92.904;2022-10-12T07:00:40;99520.34;;;9.03;52.25
42887;BME280;29032;56.028;92.904;2022-10-12T07:05:44;99523.59;;;9.07;52.74
42887;BME280;29032;56.028;92.904;2022-10-12T07:10:46;99522.88;;;9.01;53.23
42887;BME280;29032;56.028;92.904;2022-10-12T07:15:48;99504.91;;;9.08;52.32
42887;BME280;29032;56.028;92.904;2022-10-12T07:20:55;99505.97;;;9.24;51.62
42887;BME280;29032;56.028;92.904;2022-10-12T07:25:57;99504.31;;;9.15;51.55
42887;BME280;29032;56.028;92.904;2022-10-12T07:31:00;99505.06;;;9.16;51.59
42887;BME280;29032;56.028;92.904;2022-10-12T07:36:05;99505.59;;;9.14;52.10
42887;BME280;29032;56.028;92.904;2022-10-12T07:41:07;99508.63;;;9.10;52.10
42887;BME280;29032;56.028;92.904;2022-10-12T07:46:09;99498.13;;;9.03;52.31
42887;BME280;29032;56.028;92.904;2022-10-12T07:51:13;99493.78;;;9.08;52.50
42887;BME280;29032;56.028;92.904;2022-10-12T07:56:15;99488.28;;;9.02;52.38
42887;BME280;29032;56.028;92.904;2022-10-12T08:01:19;99495.59;;;9.05;52.41
42887;BME280;29032;56.028;92.904;2022-10-12T08:06:25;99489.09;;;8.97;52.92
42887;BME280;29032;56.028;92.904;2022-10-12T08:11:27;99500.16;;;8.78;53.01
42887;BME280;29032;56.028;92.904;2022-10-12T08:16:30;99511.34;;;8.67;53.04
42887;BME280;29032;56.028;92.904;2022-10-12T08:21:33;99506.84;;;8.64;53.40
42887;BME280;29032;56.028;92.904;2022-10-12T08:26:35;99506.19;;;8.52;53.34
42887;BME280;29032;56.028;92.904;2022-10-12T08:31:38;99549.84;;;8.52;53.16
42887;BME280;29032;56.028;92.904;2022-10-12T08:36:42;99566.16;;;8.31;53.24
42887;BME280;29032;56.028;92.904;2022-10-12T08:41:50;99564.88;;;7.96;53.71
42887;BME280;29032;56.028;92.904;2022-10-12T08:46:58;99563.25;;;7.71;54.31
42887;BME280;29032;56.028;92.904;2022-10-12T08:52:04;99565.38;;;7.42;55.24
42887;BME280;29032;56.028;92.904;2022-10-12T08:57:09;99564.94;;;7.27;55.31
42887;BME280;29032;56.028;92.904;2022-10-12T09:02:44;99578.00;;;7.38;54.59
42887;BME280;29032;56.028;92.904;2022-10-12T09:07:54;99566.22;;;7.09;55.72
42887;BME280;29032;56.028;92.904;2022-10-12T09:13:03;99573.06;;;6.91;56.19
42887;BME280;29032;56.028;92.904;2022-10-12T09:18:16;99580.38;;;6.89;56.16
42887;BME280;29032;56.028;92.904;2022-10-12T09:23:25;99582.38;;;6.83;55.82
42887;BME280;29032;56.028;92.904;2022-10-12T09:28:33;99581.38;;;6.75;57.39
42887;BME280;29032;56.028;92.904;2022-10-12T09:33:40;99569.81;;;6.71;56.89
42887;BME280;29032;56.028;92.904;2022-10-12T09:38:43;99573.84;;;6.81;57.84
42887;BME280;29032;56.028;92.904;2022-10-12T09:43:46;99563.75;;;6.89;57.07
42887;BME280;29032;56.028;92.904;2022-10-12T09:48:57;99561.16;;;7.13;57.10
42887;BME280;29032;56.028;92.904;2022-10-12T09:54:02;99563.19;;;7.30;57.80
42887;BME280;29032;56.028;92.904;2022-10-12T09:59:15;99574.44;;;7.49;56.79
42887;BME280;29032;56.028;92.904;2022-10-12T10:04:23;99584.75;;;7.48;56.55
42887;BME280;29032;56.028;92.904;2022-10-12T10:09:31;99581.53;;;7.38;57.75
42887;BME280;29032;56.028;92.904;2022-10-12T10:14:34;99578.53;;;7.36;57.66
42887;BME280;29032;56.028;92.904;2022-10-12T10:19:37;99579.75;;;7.41;59.67
42887;BME280;29032;56.028;92.904;2022-10-12T10:24:40;99571.84;;;7.67;57.98
42887;BME280;29032;56.028;92.904;2022-10-12T10:29:43;99552.09;;;7.82;58.08
42887;BME280;29032;56.028;92.904;2022-10-12T10:34:45;99548.66;;;8.06;57.32
42887;BME280;29032;56.028;92.904;2022-10-12T10:39:51;99545.50;;;8.26;57.21
42887;BME280;29032;56.028;92.904;2022-10-12T10:44:57;99543.88;;;8.42;56.93
42887;BME280;29032;56.028;92.904;2022-10-12T10:50:01;99506.41;;;8.30;56.28
42887;BME280;29032;56.028;92.904;2022-10-12T10:55:20;99513.19;;;8.59;55.61
42887;BME280;29032;56.028;92.904;2022-10-12T11:00:22;99515.84;;;8.46;54.32
42887;BME280;29032;56.028;92.904;2022-10-12T11:05:27;99513.28;;;8.48;54.35
42887;BME280;29032;56.028;92.904;2022-10-12T11:10:33;99496.31;;;8.57;54.64
42887;BME280;29032;56.028;92.904;2022-10-12T11:15:41;99512.84;;;8.68;54.01
42887;BME280;29032;56.028;92.904;2022-10-12T11:20:50;99515.44;;;8.61;53.91
42887;BME280;29032;56.028;92.904;2022-10-12T11:26:11;99520.78;;;8.59;53.90
42887;BME280;29032;56.028;92.904;2022-10-12T11:31:23;99523.38;;;8.51;53.76
42887;BME280;29032;56.028;92.904;2022-10-12T11:36:28;99521.78;;;8.31;53.98
42887;BME280;29032;56.028;92.904;2022-10-12T11:41:35;99522.03;;;8.27;54.28
42887;BME280;29032;56.028;92.904;2022-10-12T11:46:42;99523.84;;;8.25;54.47
42887;BME280;29032;56.028;92.904;2022-10-12T11:51:47;99519.38;;;8.16;53.94
42887;BME280;29032;56.028;92.904;2022-10-12T11:56:53;99523.97;;;8.08;54.07
42887;BME280;29032;56.028;92.904;2022-10-12T12:02:07;99521.75;;;8.01;54.45
42887;BME280;29032;56.028;92.904;2022-10-12T12:07:43;99528.75;;;8.08;54.54
42887;BME280;29032;56.028;92.904;2022-10-12T12:13:07;99530.53;;;8.05;54.29
42887;BME280;29032;56.028;92.904;2022-10-12T12:18:11;99534.38;;;7.96;54.56
42887;BME280;29032;56.028;92.904;2022-10-12T12:23:18;99546.75;;;7.90;54.50
42887;BME280;29032;56.028;92.904;2022-10-12T12:28:23;99549.63;;;7.79;55.27
42887;BME280;29032;56.028;92.904;2022-10-12T12:33:29;99548.34;;;7.80;55.10
42887;BME280;29032;56.028;92.904;2022-10-12T12:38:32;99541.75;;;7.83;54.77
42887;BME280;29032;56.028;92.904;2022-10-12T12:43:50;99572.97;;;7.89;54.26
42887;BME280;29032;56.028;92.904;2022-10-12T12:48:57;99585.03;;;7.39;54.56
42887;BME280;29032;56.028;92.904;2022-10-12T12:54:01;99586.38;;;7.04;55.17
42887;BME280;29032;56.028;92.904;2022-10-12T13:04:45;99589.94;;;6.77;55.07
42887;BME280;29032;56.028;92.904;2022-10-12T13:10:12;99590.94;;;6.62;55.08
42887;BME280;29032;56.028;92.904;2022-10-12T13:15:37;99581.38;;;6.58;56.30
42887;BME280;29032;56.028;92.904;2022-10-12T13:20:45;99584.66;;;6.51;56.64
42887;BME280;29032;56.028;92.904;2022-10-12T13:25:51;99571.09;;;6.58;56.69
42887;BME280;29032;56.028;92.904;2022-10-12T13:30:59;99582.13;;;6.75;56.22
42887;BME280;29032;56.028;92.904;2022-10-12T13:36:04;99579.88;;;6.74;56.51
42887;BME280;29032;56.028;92.904;2022-10-12T13:41:10;99579.88;;;6.74;56.05
42887;BME280;29032;56.028;92.904;2022-10-12T13:46:35;99580.38;;;6.89;55.04
42887;BME280;29032;56.028;92.904;2022-10-12T13:51:38;99572.06;;;6.78;55.50
42887;BME280;29032;56.028;92.904;2022-10-12T13:56:40;99571.31;;;6.94;56.23
42887;BME280;29032;56.028;92.904;2022-10-12T14:01:53;99569.47;;;7.25;54.86
42887;BME280;29032;56.028;92.904;2022-10-12T14:06:58;99570.47;;;7.27;54.53
42887;BME280;29032;56.028;92.904;2022-10-12T14:12:01;99575.53;;;7.23;55.40
42887;BME280;29032;56.028;92.904;2022-10-12T14:17:06;99577.03;;;7.30;55.10
42887;BME280;29032;56.028;92.904;2022-10-12T14:22:08;99571.97;;;7.34;54.62
42887;BME280;29032;56.028;92.904;2022-10-12T14:27:20;99571.84;;;7.62;54.89
42887;BME280;29032;56.028;92.904;2022-10-12T14:32:39;99573.31;;;7.74;54.74
42887;BME280;29032;56.028;92.904;2022-10-12T14:37:41;99579.75;;;7.41;55.07
42887;BME280;29032;56.028;92.904;2022-10-12T14:42:53;99562.28;;;7.63;55.15
42887;BME280;29032;56.028;92.904;2022-10-12T14:47:57;99571.63;;;7.54;54.99
42887;BME280;29032;56.028;92.904;2022-10-12T14:53:02;99549.44;;;7.60;54.83
42887;BME280;29032;56.028;92.904;2022-10-12T14:58:04;99548.94;;;7.61;54.77
42887;BME280;29032;56.028;92.904;2022-10-12T15:03:08;99541.94;;;7.49;55.08
42887;BME280;29032;56.028;92.904;2022-10-12T15:08:10;99542.72;;;7.44;55.34
42887;BME280;29032;56.028;92.904;2022-10-12T15:13:12;99541.41;;;7.56;55.06
42887;BME280;29032;56.028;92.904;2022-10-12T15:18:16;99538.16;;;7.52;55.28
42887;BME280;29032;56.028;92.904;2022-10-12T15:23:18;99532.19;;;7.37;55.79
42887;BME280;29032;56.028;92.904;2022-10-12T15:28:20;99534.88;;;7.48;55.51
42887;BME280;29032;56.028;92.904;2022-10-12T15:33:24;99535.16;;;7.50;54.95
42887;BME280;29032;56.028;92.904;2022-10-12T15:38:26;99541.50;;;7.34;56.19
42887;BME280;29032;56.028;92.904;2022-10-12T15:43:29;99534.47;;;7.27;56.50
42887;BME280;29032;56.028;92.904;2022-10-12T15:48:32;99540.00;;;7.33;56.69
42887;BME280;29032;56.028;92.904;2022-10-12T15:53:34;99544.03;;;7.32;57.02
42887;BME280;29032;56.028;92.904;2022-10-12T15:58:36;99538.72;;;7.34;57.16
42887;BME280;29032;56.028;92.904;2022-10-12T16:03:40;99539.91;;;7.55;56.93
42887;BME280;29032;56.028;92.904;2022-10-12T16:08:43;99537.09;;;7.61;56.69
42887;BME280;29032;56.028;92.904;2022-10-12T16:13:45;99535.44;;;7.41;56.83
42887;BME280;29032;56.028;92.904;2022-10-12T16:18:50;99532.72;;;7.30;58.27
42887;BME280;29032;56.028;92.904;2022-10-12T16:23:52;99522.13;;;7.28;58.18
42887;BME280;29032;56.028;92.904;2022-10-12T16:28:54;99515.59;;;7.31;57.51
42887;BME280;29032;56.028;92.904;2022-10-12T16:33:58;99519.09;;;7.37;56.94
42887;BME280;29032;56.028;92.904;2022-10-12T16:39:01;99512.06;;;7.31;56.81
42887;BME280;29032;56.028;92.904;2022-10-12T16:44:03;99516.34;;;7.21;57.18
42887;BME280;29032;56.028;92.904;2022-10-12T16:49:07;99529.72;;;7.16;57.12
42887;BME280;29032;56.028;92.904;2022-10-12T16:54:09;99540.56;;;7.09;58.42
42887;BME280;29032;56.028;92.904;2022-10-12T16:59:12;99558.22;;;6.89;59.29
42887;BME280;29032;56.028;92.904;2022-10-12T17:04:15;99574.06;;;6.21;58.36
42887;BME280;29032;56.028;92.904;2022-10-12T17:09:17;99571.63;;;5.41;60.53
42887;BME280;29032;56.028;92.904;2022-10-12T17:14:19;99576.47;;;5.15;60.18
42887;BME280;29032;56.028;92.904;2022-10-12T17:19:26;99584.97;;;5.06;60.85
42887;BME280;29032;56.028;92.904;2022-10-12T17:24:36;99589.94;;;5.02;59.14
42887;BME280;29032;56.028;92.904;2022-10-12T17:29:44;99586.16;;;4.62;60.82
42887;BME280;29032;56.028;92.904;2022-10-12T17:34:48;99595.41;;;4.27;61.01
42887;BME280;29032;56.028;92.904;2022-10-12T17:39:50;99604.84;;;3.95;62.85
42887;BME280;29032;56.028;92.904;2022-10-12T17:44:53;99605.41;;;3.78;62.56
42887;BME280;29032;56.028;92.904;2022-10-12T17:49:56;99610.84;;;3.93;62.56
42887;BME280;29032;56.028;92.904;2022-10-12T17:54:58;99618.06;;;3.91;62.16
42887;BME280;29032;56.028;92.904;2022-10-12T18:00:01;99619.78;;;3.88;62.76
42887;BME280;29032;56.028;92.904;2022-10-12T18:05:14;99634.47;;;3.79;62.54
42887;BME280;29032;56.028;92.904;2022-10-12T18:10:17;99637.78;;;3.63;63.34
42887;BME280;29032;56.028;92.904;2022-10-12T18:15:19;99635.06;;;3.69;62.12
42887;BME280;29032;56.028;92.904;2022-10-12T18:20:23;99646.72;;;3.58;62.51
42887;BME280;29032;56.028;92.904;2022-10-12T18:25:25;99651.31;;;3.46;63.01
42887;BME280;29032;56.028;92.904;2022-10-12T18:30:27;99658.31;;;3.47;62.77
42887;BME280;29032;56.028;92.904;2022-10-12T18:35:33;99660.06;;;3.45;62.45
42887;BME280;29032;56.028;92.904;2022-10-12T18:40:36;99665.53;;;3.24;63.32
42887;BME280;29032;56.028;92.904;2022-10-12T18:45:40;99679.16;;;3.33;63.49
42887;BME280;29032;56.028;92.904;2022-10-12T18:50:44;99684.75;;;3.39;63.33
42887;BME280;29032;56.028;92.904;2022-10-12T18:55:46;99683.22;;;3.38;63.41
42887;BME280;29032;56.028;92.904;2022-10-12T19:00:48;99688.16;;;3.49;62.84
42887;BME280;29032;56.028;92.904;2022-10-12T19:06:01;99714.69;;;3.52;63.21
42887;BME280;29032;56.028;92.904;2022-10-12T19:11:05;99727.06;;;3.42;63.13
42887;BME280;29032;56.028;92.904;2022-10-12T19:16:09;99725.56;;;3.26;63.85
42887;BME280;29032;56.028;92.904;2022-10-12T19:21:15;99723.47;;;3.36;63.61
42887;BME280;29032;56.028;92.904;2022-10-12T19:26:19;99731.03;;;3.41;63.42
42887;BME280;29032;56.028;92.904;2022-10-12T19:31:23;99734.63;;;3.47;63.26
42887;BME280;29032;56.028;92.904;2022-10-12T19:36:28;99749.31;;;3.23;63.77
42887;BME280;29032;56.028;92.904;2022-10-12T19:41:30;99745.50;;;3.06;65.07
42887;BME280;29032;56.028;92.904;2022-10-12T19:46:33;99766.19;;;3.16;64.91
42887;BME280;29032;56.028;92.904;2022-10-12T19:51:36;99771.31;;;3.23;64.47
42887;BME280;29032;56.028;92.904;2022-10-12T19:56:38;99773.22;;;3.17;64.38
42887;BME280;29032;56.028;92.904;2022-10-12T20:01:41;99782.31;;;3.09;65.30
42887;BME280;29032;56.028;92.904;2022-10-12T20:06:44;99796.72;;;3.18;65.29
42887;BME280;29032;56.028;92.904;2022-10-12T20:11:46;99806.59;;;3.25;64.52
42887;BME280;29032;56.028;92.904;2022-10-12T20:16:48;99805.28;;;3.35;64.76
42887;BME280;29032;56.028;92.904;2022-10-12T20:21:52;99806.13;;;3.56;64.42
42887;BME280;29032;56.028;92.904;2022-10-12T20:26:54;99817.84;;;3.71;63.22
42887;BME280;29032;56.028;92.904;2022-10-12T20:31:57;99838.63;;;3.87;63.12
42887;BME280;29032;56.028;92.904;2022-10-12T20:37:00;99832.59;;;3.53;63.44
42887;BME280;29032;56.028;92.904;2022-10-12T20:42:03;99839.72;;;3.45;63.50
42887;BME280;29032;56.028;92.904;2022-10-12T20:47:05;99841.50;;;3.48;63.45
42887;BME280;29032;56.028;92.904;2022-10-12T20:52:09;99850.53;;;3.49;63.01
42887;BME280;29032;56.028;92.904;2022-10-12T20:57:12;99854.22;;;3.46;63.00
42887;BME280;29032;56.028;92.904;2022-10-12T21:02:14;99867.91;;;3.40;63.69
42887;BME280;29032;56.028;92.904;2022-10-12T21:07:18;99871.88;;;3.69;63.38
42887;BME280;29032;56.028;92.904;2022-10-12T21:12:21;99865.19;;;3.90;62.43
42887;BME280;29032;56.028;92.904;2022-10-12T21:17:23;99876.75;;;4.09;61.94
42887;BME280;29032;56.028;92.904;2022-10-12T21:22:27;99898.06;;;4.29;61.17
42887;BME280;29032;56.028;92.904;2022-10-12T21:27:29;99911.25;;;4.39;60.17
42887;BME280;29032;56.028;92.904;2022-10-12T21:32:31;99918.44;;;4.52;60.11
42887;BME280;29032;56.028;92.904;2022-10-12T21:37:35;99922.59;;;4.62;60.15
42887;BME280;29032;56.028;92.904;2022-10-12T21:42:37;99934.91;;;4.66;60.32
42887;BME280;29032;56.028;92.904;2022-10-12T21:47:39;99939.84;;;4.77;59.60
42887;BME280;29032;56.028;92.904;2022-10-12T21:52:42;99959.75;;;4.87;59.13
42887;BME280;29032;56.028;92.904;2022-10-12T21:57:44;99963.00;;;4.85;59.61
42887;BME280;29032;56.028;92.904;2022-10-12T22:02:47;99972.94;;;4.77;59.29
42887;BME280;29032;56.028;92.904;2022-10-12T22:07:50;99985.66;;;4.75;58.66
42887;BME280;29032;56.028;92.904;2022-10-12T22:12:53;99981.25;;;4.62;59.37
42887;BME280;29032;56.028;92.904;2022-10-12T22:17:55;100001.31;;;4.63;59.23
42887;BME280;29032;56.028;92.904;2022-10-12T22:22:58;99989.97;;;4.76;58.98
42887;BME280;29032;56.028;92.904;2022-10-12T22:28:00;100004.03;;;4.78;58.10
42887;BME280;29032;56.028;92.904;2022-10-12T22:33:04;100002.97;;;4.75;58.38
42887;BME280;29032;56.028;92.904;2022-10-12T22:38:09;100014.56;;;4.79;58.44
42887;BME280;29032;56.028;92.904;2022-10-12T22:43:12;100030.44;;;4.84;57.91
42887;BME280;29032;56.028;92.904;2022-10-12T22:48:14;100026.03;;;4.92;58.09
42887;BME280;29032;56.028;92.904;2022-10-12T22:53:19;100032.94;;;5.03;58.20
42887;BME280;29032;56.028;92.904;2022-10-12T22:58:21;100054.06;;;5.06;57.37
42887;BME280;29032;56.028;92.904;2022-10-12T23:03:23;100056.69;;;5.15;57.32
42887;BME280;29032;56.028;92.904;2022-10-12T23:08:27;100058.50;;;5.18;57.48
42887;BME280;29032;56.028;92.904;2022-10-12T23:13:29;100066.31;;;5.19;56.78
42887;BME280;29032;56.028;92.904;2022-10-12T23:18:31;100074.16;;;5.26;56.82
42887;BME280;29032;56.028;92.904;2022-10-12T23:23:36;100077.38;;;5.40;56.86
42887;BME280;29032;56.028;92.904;2022-10-12T23:28:38;100085.53;;;5.14;56.84
42887;BME280;29032;56.028;92.904;2022-10-12T23:33:46;100082.22;;;5.10;57.42
42887;BME280;29032;56.028;92.904;2022-10-12T23:38:51;100085.28;;;5.12;56.34
42887;BME280;29032;56.028;92.904;2022-10-12T23:43:53;100093.13;;;4.98;56.84
42887;BME280;29032;56.028;92.904;2022-10-12T23:48:55;100103.88;;;4.96;56.61
42887;BME280;29032;56.028;92.904;2022-10-12T23:53:59;100108.69;;;5.02;56.90
42887;BME280;29032;56.028;92.904;2022-10-12T23:59:01;100122.09;;;5.09;58.11
